Time;durP1;ratioP1;P1;durP2;ratioP2;P2;SDS_P1;SDS_P2;PMS_P1;PMS_P2;Temp;Humidity;BMP_temperature;BMP_pressure;BME280_temperature;BME280_humidity;BME280_pressure;Samples;Min_cycle;Max_cycle;Signal;HPM_P1;HPM_P2
2020/12/07 00:01:28;;;;;;;74.63;27.33;;;3.30;99.90;;;;;;5119521;28;20028;-69
2020/12/07 00:03:56;;;;;;;73.20;27.48;;;3.30;99.90;;;;;;5119224;28;20054;-69
2020/12/07 00:06:24;;;;;;;73.35;26.70;;;3.40;99.90;;;;;;5119642;28;20027;-69
2020/12/07 00:08:52;;;;;;;71.45;28.45;;;3.30;99.90;;;;;;5118864;28;20056;-69
2020/12/07 00:11:20;;;;;;;69.38;27.67;;;3.30;99.90;;;;;;5119057;28;20024;-69
2020/12/07 00:13:48;;;;;;;76.60;29.23;;;3.30;99.90;;;;;;5119035;28;20449;-69
2020/12/07 00:16:15;;;;;;;70.00;27.48;;;3.30;99.90;;;;;;5119751;28;20023;-69
2020/12/07 00:18:44;;;;;;;82.05;29.60;;;3.30;99.90;;;;;;5100870;28;20059;-69
2020/12/07 00:21:12;;;;;;;80.07;28.67;;;3.20;99.90;;;;;;5118844;28;20079;-69
2020/12/07 00:23:40;;;;;;;89.10;29.52;;;3.30;99.90;;;;;;5118829;28;20024;-69
2020/12/07 00:26:10;;;;;;;83.93;29.20;;;3.20;99.90;;;;;;5118890;28;20020;-69
2020/12/07 00:28:41;;;;;;;88.63;29.95;;;3.30;99.90;;;;;;5118742;28;20042;-69
2020/12/07 00:31:09;;;;;;;87.50;29.38;;;3.30;99.90;;;;;;5118639;28;20015;-69
2020/12/07 00:33:38;;;;;;;95.22;32.28;;;3.20;99.90;;;;;;5118540;28;20028;-69
2020/12/07 00:36:05;;;;;;;83.03;29.48;;;3.30;99.90;;;;;;5119138;28;20106;-69
2020/12/07 00:38:33;;;;;;;98.97;31.67;;;3.30;99.90;;;;;;5119064;28;20028;-69
2020/12/07 00:41:00;;;;;;;88.60;30.92;;;3.30;99.90;;;;;;5100399;28;20300;-69
2020/12/07 00:43:28;;;;;;;88.03;29.60;;;3.30;99.90;;;;;;5118424;28;20026;-69
2020/12/07 00:45:58;;;;;;;81.10;27.30;;;3.30;99.90;;;;;;5118976;28;20046;-69
2020/12/07 00:48:26;;;;;;;82.97;30.63;;;3.30;99.90;;;;;;5100262;28;20074;-69
2020/12/07 00:50:54;;;;;;;77.13;27.40;;;3.30;99.90;;;;;;5118134;28;20020;-69
2020/12/07 00:53:21;;;;;;;78.82;28.73;;;3.30;99.90;;;;;;5100076;28;20015;-69
2020/12/07 00:55:49;;;;;;;82.28;30.38;;;3.30;99.90;;;;;;5100140;28;20077;-69
2020/12/07 00:58:19;;;;;;;79.35;29.80;;;3.30;99.90;;;;;;5118713;28;20018;-69
2020/12/07 01:00:46;;;;;;;84.13;32.50;;;3.30;99.90;;;;;;5117577;28;20327;-69
2020/12/07 01:03:14;;;;;;;86.35;30.50;;;3.30;99.90;;;;;;5117837;28;20019;-69
2020/12/07 01:05:42;;;;;;;81.28;28.67;;;3.30;99.90;;;;;;5099867;28;20036;-69
2020/12/07 01:08:10;;;;;;;79.20;29.77;;;3.30;99.90;;;;;;5117693;28;20091;-69
2020/12/07 01:10:38;;;;;;;77.35;28.35;;;3.30;99.90;;;;;;5100361;28;20296;-69
2020/12/07 01:13:05;;;;;;;75.90;27.40;;;3.30;99.90;;;;;;5118414;28;20017;-69
2020/12/07 01:15:33;;;;;;;77.53;27.65;;;3.30;99.90;;;;;;5118406;28;20027;-69
2020/12/07 01:18:00;;;;;;;83.68;29.67;;;3.30;99.90;;;;;;5118347;28;20019;-69
2020/12/07 01:20:28;;;;;;;73.80;28.08;;;3.30;99.90;;;;;;5117889;28;20106;-69
2020/12/07 01:22:55;;;;;;;75.68;27.08;;;3.40;99.90;;;;;;5118177;28;20434;-69
2020/12/07 01:25:23;;;;;;;82.13;30.23;;;3.30;99.90;;;;;;5117603;28;20419;-69
2020/12/07 01:27:51;;;;;;;77.00;27.67;;;3.30;99.90;;;;;;5118191;28;20031;-69
2020/12/07 01:30:18;;;;;;;76.15;28.17;;;3.30;99.90;;;;;;5099434;28;20061;-69
2020/12/07 01:32:46;;;;;;;76.00;27.25;;;3.30;99.90;;;;;;5118084;28;20281;-69
2020/12/07 01:35:14;;;;;;;80.80;28.90;;;3.30;99.90;;;;;;5117667;28;20019;-69
2020/12/07 01:37:41;;;;;;;74.28;27.02;;;3.30;99.90;;;;;;5117397;28;20316;-69
2020/12/07 01:40:09;;;;;;;75.95;26.92;;;3.30;99.90;;;;;;5118001;28;20353;-69
2020/12/07 01:42:37;;;;;;;70.00;28.80;;;3.30;99.90;;;;;;5117944;28;20023;-69
2020/12/07 01:45:05;;;;;;;73.82;27.80;;;3.30;99.90;;;;;;5117502;28;20419;-69
2020/12/07 01:47:32;;;;;;;79.60;28.13;;;3.20;99.90;;;;;;5099868;28;20027;-69
2020/12/07 01:50:01;;;;;;;77.88;28.40;;;3.30;99.90;;;;;;5100033;28;20315;-69
2020/12/07 01:52:29;;;;;;;76.40;29.00;;;3.30;99.90;;;;;;5117298;28;20012;-69
2020/12/07 01:54:56;;;;;;;84.10;29.15;;;3.30;99.90;;;;;;5099355;28;20015;-69
2020/12/07 01:57:24;;;;;;;83.25;29.40;;;3.30;99.90;;;;;;5117695;28;20015;-69
2020/12/07 01:59:51;;;;;;;76.47;28.33;;;3.30;99.90;;;;;;5117679;28;20375;-69
2020/12/07 02:02:19;;;;;;;77.18;27.15;;;3.30;99.90;;;;;;5117345;28;20026;-69
2020/12/07 02:04:46;;;;;;;81.65;30.13;;;3.30;99.90;;;;;;5099017;28;20327;-69
2020/12/07 02:07:20;;;;;;;77.88;28.00;;;3.30;99.90;;;;;;5116794;28;20020;-70
2020/12/07 02:09:48;;;;;;;81.78;28.95;;;3.30;99.90;;;;;;5117036;28;20024;-69
2020/12/07 02:12:15;;;;;;;88.22;30.63;;;3.30;99.90;;;;;;5100155;28;20038;-69
2020/12/07 02:14:43;;;;;;;70.50;28.25;;;3.30;99.90;;;;;;5124622;28;20022;-69
2020/12/07 02:17:11;;;;;;;73.97;27.92;;;3.30;99.90;;;;;;5123306;28;20055;-69
2020/12/07 02:19:39;;;;;;;70.32;28.63;;;3.30;99.90;;;;;;5124223;28;20016;-69
2020/12/07 02:22:07;;;;;;;70.10;26.23;;;3.30;99.90;;;;;;5123679;28;20022;-69
2020/12/07 02:24:34;;;;;;;67.22;27.10;;;3.30;99.90;;;;;;5105660;28;20051;-69
2020/12/07 02:27:02;;;;;;;61.88;25.17;;;3.30;99.90;;;;;;5105555;28;20063;-69
2020/12/07 02:29:30;;;;;;;74.60;26.73;;;3.30;99.90;;;;;;5105581;28;20062;-69
2020/12/07 02:32:14;;;;;;;63.45;25.70;;;3.30;99.90;;;;;;5123737;28;20069;-69
2020/12/07 02:34:42;;;;;;;65.32;25.13;;;3.30;99.90;;;;;;5123704;28;20023;-69
2020/12/07 02:37:11;;;;;;;59.30;25.95;;;3.40;99.90;;;;;;5105429;28;20106;-69
2020/12/07 02:39:38;;;;;;;67.00;26.90;;;3.30;99.90;;;;;;5124304;28;20451;-69
2020/12/07 02:42:07;;;;;;;65.78;26.70;;;3.40;99.90;;;;;;5104155;28;20419;-69
2020/12/07 02:44:35;;;;;;;69.15;26.65;;;3.30;99.90;;;;;;5105409;28;20484;-69
2020/12/07 02:47:03;;;;;;;67.75;27.33;;;3.30;99.90;;;;;;5105301;28;20027;-69
2020/12/07 02:49:30;;;;;;;63.97;26.40;;;3.30;99.90;;;;;;5123496;28;20419;-69
2020/12/07 02:51:58;;;;;;;67.55;25.80;;;3.30;99.90;;;;;;5105348;28;20024;-69
2020/12/07 02:54:26;;;;;;;68.13;24.90;;;3.30;99.90;;;;;;5124016;28;20047;-69
2020/12/07 02:56:54;;;;;;;61.92;24.58;;;3.30;99.90;;;;;;5123391;28;20109;-69
2020/12/07 02:59:21;;;;;;;61.10;25.45;;;3.30;99.90;;;;;;5123947;28;20024;-69
2020/12/07 03:01:49;;;;;;;65.47;26.73;;;3.30;99.90;;;;;;5123573;28;20028;-69
2020/12/07 03:04:17;;;;;;;61.97;24.85;;;3.30;99.90;;;;;;5105222;28;20392;-69
2020/12/07 03:06:44;;;;;;;67.20;25.92;;;3.30;99.90;;;;;;5123555;28;20024;-69
2020/12/07 03:09:12;;;;;;;67.55;26.67;;;3.30;99.90;;;;;;5123274;28;20166;-69
2020/12/07 03:11:40;;;;;;;57.67;24.98;;;3.40;99.90;;;;;;5124028;28;20030;-69
2020/12/07 03:14:08;;;;;;;64.38;26.95;;;3.40;99.90;;;;;;5105119;28;20047;-69
2020/12/07 03:16:36;;;;;;;65.35;24.88;;;3.40;99.90;;;;;;5123208;28;20093;-69
2020/12/07 03:19:03;;;;;;;58.25;24.40;;;3.40;99.90;;;;;;5123219;28;20019;-69
2020/12/07 03:21:31;;;;;;;67.50;25.77;;;3.30;99.90;;;;;;5105041;28;20050;-69
2020/12/07 03:23:59;;;;;;;56.20;21.92;;;3.30;99.90;;;;;;5121283;28;20024;-69
2020/12/07 03:26:27;;;;;;;58.53;23.70;;;3.30;99.90;;;;;;5120528;28;20020;-69
2020/12/07 03:28:54;;;;;;;69.22;25.38;;;3.40;99.90;;;;;;5101818;28;20028;-69
2020/12/07 03:31:22;;;;;;;60.75;25.10;;;3.40;99.90;;;;;;5101759;28;20034;-69
2020/12/07 03:33:50;;;;;;;63.75;24.15;;;3.40;99.90;;;;;;5119816;28;20026;-69
2020/12/07 03:36:18;;;;;;;57.38;23.65;;;3.40;99.90;;;;;;5119900;28;20011;-69
2020/12/07 03:38:46;;;;;;;66.07;24.65;;;3.40;99.90;;;;;;5101631;28;20020;-69
2020/12/07 03:41:13;;;;;;;65.95;25.17;;;3.40;99.90;;;;;;5120224;28;20028;-69
2020/12/07 03:43:41;;;;;;;58.45;23.95;;;3.40;99.90;;;;;;5120155;28;20024;-69
2020/12/07 03:46:08;;;;;;;63.13;25.08;;;3.40;99.90;;;;;;5120013;28;20024;-69
2020/12/07 03:48:36;;;;;;;59.78;24.92;;;3.40;99.90;;;;;;5119524;28;20051;-69
2020/12/07 03:51:04;;;;;;;62.60;24.55;;;3.50;99.90;;;;;;5101935;28;20020;-69
2020/12/07 03:53:37;;;;;;;64.25;24.42;;;3.50;99.90;;;;;;5119447;28;20019;-69
2020/12/07 03:56:06;;;;;;;60.08;23.20;;;3.50;99.90;;;;;;5119573;28;20068;-69
2020/12/07 03:58:34;;;;;;;61.05;24.85;;;3.50;99.90;;;;;;5101543;28;20284;-69
2020/12/07 04:01:04;;;;;;;63.25;26.00;;;3.50;99.90;;;;;;5119641;28;20019;-69
2020/12/07 04:03:33;;;;;;;60.65;24.25;;;3.50;99.90;;;;;;5119307;28;20019;-69
2020/12/07 04:08:47;;;;;;;56.55;22.08;;;3.50;99.90;;;;;;5119150;28;20051;-69
2020/12/07 04:11:15;;;;;;;60.00;23.90;;;3.50;99.90;;;;;;5101064;28;20398;-69
2020/12/07 04:13:42;;;;;;;66.68;24.15;;;3.50;99.90;;;;;;5119080;28;20357;-69
2020/12/07 04:16:10;;;;;;;56.63;23.42;;;3.50;99.90;;;;;;5119761;28;20015;-69
2020/12/07 04:18:38;;;;;;;57.22;23.23;;;3.50;99.90;;;;;;5119528;28;20030;-69
2020/12/07 04:21:06;;;;;;;58.17;24.05;;;3.50;99.90;;;;;;5118908;28;20081;-69
2020/12/07 04:23:34;;;;;;;59.03;24.85;;;3.50;99.90;;;;;;5119148;28;20047;-69
2020/12/07 04:26:01;;;;;;;62.33;25.08;;;3.50;99.90;;;;;;5100902;28;20034;-69
2020/12/07 04:28:29;;;;;;;58.80;23.58;;;3.50;99.90;;;;;;5118773;28;20068;-69
2020/12/07 04:30:57;;;;;;;62.13;24.38;;;3.50;99.90;;;;;;5119266;28;20030;-69
2020/12/07 04:33:24;;;;;;;60.22;23.58;;;3.50;99.90;;;;;;5101358;28;20020;-69
2020/12/07 04:35:51;;;;;;;55.00;23.33;;;3.40;99.90;;;;;;5118438;28;20024;-69
2020/12/07 04:38:19;;;;;;;62.83;23.17;;;3.40;99.90;;;;;;5118581;28;20012;-69
2020/12/07 04:40:48;;;;;;;63.17;23.98;;;3.40;99.90;;;;;;5100435;28;20391;-69
2020/12/07 04:43:16;;;;;;;51.22;21.83;;;3.40;99.90;;;;;;5119049;28;20315;-69
2020/12/07 04:45:44;;;;;;;55.40;22.42;;;3.40;99.90;;;;;;5100542;28;20034;-69
2020/12/07 04:48:12;;;;;;;52.50;23.50;;;3.40;99.90;;;;;;5118363;28;20450;-70
2020/12/07 04:50:40;;;;;;;63.97;24.20;;;3.40;99.90;;;;;;5118443;28;20472;-69
2020/12/07 04:53:09;;;;;;;63.00;24.30;;;3.40;99.90;;;;;;5118289;28;20319;-69
2020/12/07 04:55:37;;;;;;;58.97;23.38;;;3.40;99.90;;;;;;5118261;28;20019;-69
2020/12/07 04:58:06;;;;;;;56.10;22.60;;;3.40;99.90;;;;;;5118210;28;20054;-69
2020/12/07 05:00:34;;;;;;;58.50;23.13;;;3.40;99.90;;;;;;5100196;28;20331;-69
2020/12/07 05:03:03;;;;;;;67.55;26.00;;;3.40;99.90;;;;;;5118044;28;20324;-70
2020/12/07 05:05:31;;;;;;;59.22;23.77;;;3.40;99.90;;;;;;5099987;28;20027;-69
2020/12/07 05:08:00;;;;;;;57.67;23.17;;;3.40;99.90;;;;;;5117791;28;20055;-70
2020/12/07 05:10:37;;;;;;;55.72;21.73;;;3.40;99.90;;;;;;5118899;28;20023;-69
2020/12/07 05:13:15;;;;;;;77.45;28.15;;;3.40;99.90;;;;;;5117824;28;20016;-69
2020/12/07 05:15:44;;;;;;;148.98;45.45;;;3.40;99.90;;;;;;5099679;28;20024;-69
2020/12/07 05:18:11;;;;;;;76.00;28.42;;;3.40;99.90;;;;;;5117719;28;20053;-70
2020/12/07 05:20:39;;;;;;;59.30;22.05;;;3.40;99.90;;;;;;5099829;28;20035;-69
2020/12/07 05:23:07;;;;;;;46.78;20.85;;;3.50;99.90;;;;;;5099612;28;20023;-69
2020/12/07 05:25:35;;;;;;;42.20;19.50;;;3.40;99.90;;;;;;5117710;28;20020;-69
2020/12/07 05:28:07;;;;;;;42.28;18.73;;;3.40;99.90;;;;;;5117992;28;20026;-69
2020/12/07 05:30:42;;;;;;;35.50;15.52;;;3.40;99.90;;;;;;5118185;28;20403;-69
2020/12/07 05:33:12;;;;;;;22.85;10.70;;;3.40;99.90;;;;;;5117460;28;20024;-69
2020/12/07 05:35:40;;;;;;;17.73;7.50;;;3.40;99.90;;;;;;5099391;28;20031;-70
2020/12/07 05:38:08;;;;;;;14.25;5.57;;;3.40;99.90;;;;;;5117384;28;20361;-69
2020/12/07 05:40:36;;;;;;;14.20;5.93;;;3.40;99.90;;;;;;5118060;28;20027;-69
2020/12/07 05:43:04;;;;;;;10.43;5.53;;;3.40;99.90;;;;;;5117311;28;20416;-69
2020/12/07 05:45:32;;;;;;;10.40;4.43;;;3.40;99.90;;;;;;5099425;28;20480;-69
2020/12/07 05:48:02;;;;;;;7.35;3.35;;;3.40;99.90;;;;;;5116776;28;20054;-70
2020/12/07 05:50:34;;;;;;;11.52;4.78;;;3.40;99.90;;;;;;5117794;28;20396;-69
2020/12/07 05:53:02;;;;;;;7.72;4.15;;;3.40;99.90;;;;;;5117133;28;20022;-69
2020/12/07 05:55:32;;;;;;;7.05;3.38;;;3.30;99.90;;;;;;5099102;28;20035;-69
2020/12/07 05:58:03;;;;;;;6.65;3.55;;;3.30;99.90;;;;;;5117135;28;20382;-69
2020/12/07 06:00:32;;;;;;;6.18;3.30;;;3.30;99.90;;;;;;5117456;28;20042;-69
2020/12/07 06:03:02;;;;;;;7.28;3.53;;;3.30;99.90;;;;;;5117411;28;20030;-70
2020/12/07 06:05:30;;;;;;;6.75;3.10;;;3.30;99.90;;;;;;5117407;28;20031;-69
2020/12/07 06:08:19;;;;;;;5.93;3.20;;;3.30;99.90;;;;;;5117059;28;20051;-70
2020/12/07 06:11:03;;;;;;;6.32;3.47;;;3.20;99.90;;;;;;5117694;28;20019;-69
2020/12/07 06:13:32;;;;;;;6.00;3.40;;;3.20;99.90;;;;;;5116990;28;20031;-69
2020/12/07 06:16:04;;;;;;;7.03;3.53;;;3.20;99.90;;;;;;5117618;28;20404;-69
2020/12/07 06:18:35;;;;;;;9.32;4.32;;;3.20;99.90;;;;;;5116982;28;20032;-69
2020/12/07 06:21:04;;;;;;;6.95;3.60;;;3.10;99.90;;;;;;5117523;28;20028;-69
2020/12/07 06:23:39;;;;;;;7.57;3.90;;;3.10;99.90;;;;;;5116830;28;20032;-69
2020/12/07 06:26:09;;;;;;;8.23;4.00;;;3.10;99.90;;;;;;5117418;28;20015;-69
2020/12/07 06:28:40;;;;;;;6.45;3.35;;;3.10;99.90;;;;;;5116869;28;20027;-69
2020/12/07 06:31:20;;;;;;;7.70;4.30;;;3.20;99.90;;;;;;5117076;28;20027;-70
2020/12/07 06:33:53;;;;;;;6.53;3.83;;;3.10;99.90;;;;;;5116827;28;20026;-69
2020/12/07 06:36:34;;;;;;;5.95;3.22;;;3.10;99.90;;;;;;5117321;28;20095;-70
2020/12/07 06:39:08;;;;;;;7.72;3.05;;;3.10;99.90;;;;;;5116743;28;20339;-70
2020/12/07 06:41:41;;;;;;;7.13;3.40;;;3.10;99.90;;;;;;5098882;28;20312;-70
2020/12/07 06:44:13;;;;;;;5.07;3.53;;;3.10;99.90;;;;;;5098683;28;20023;-70
2020/12/07 06:46:50;;;;;;;7.78;3.78;;;3.10;99.90;;;;;;5116685;28;20038;-70
2020/12/07 06:49:23;;;;;;;5.03;2.85;;;3.10;99.90;;;;;;5116821;28;20028;-70
2020/12/07 06:52:06;;;;;;;6.78;3.22;;;3.10;99.90;;;;;;5117193;28;20051;-68
2020/12/07 06:57:47;;;;;;;4.35;2.67;;;3.00;99.90;;;;;;5116592;28;20550;-68
2020/12/07 07:00:18;;;;;;;;;;;3.00;99.90;;;;;;5119481;28;20031;-68
2020/12/07 07:02:50;;;;;;;4.45;2.58;;;3.00;99.90;;;;;;5120718;28;20207;-68
2020/12/07 07:05:20;;;;;;;4.35;2.60;;;3.00;99.90;;;;;;5120476;28;20316;-68
2020/12/07 07:07:48;;;;;;;4.18;2.28;;;3.00;99.90;;;;;;5120059;28;20040;-68
2020/12/07 07:10:16;;;;;;;5.20;3.05;;;3.00;99.90;;;;;;5120914;28;20020;-68
2020/12/07 07:12:47;;;;;;;6.43;3.30;;;3.00;99.90;;;;;;5120239;28;20020;-68
2020/12/07 07:15:15;;;;;;;4.15;2.38;;;3.00;99.90;;;;;;5120247;28;20032;-68
2020/12/07 07:17:44;;;;;;;3.83;2.30;;;3.00;99.90;;;;;;5120382;28;20414;-68
2020/12/07 07:20:14;;;;;;;6.80;3.20;;;3.00;99.90;;;;;;5120286;28;20430;-68
2020/12/07 07:22:44;;;;;;;4.90;2.70;;;3.00;99.90;;;;;;5120124;28;20039;-68
2020/12/07 07:30:32;;;;;;;5.80;2.67;;;3.00;99.90;;;;;;5120040;28;20039;-67
2020/12/07 07:33:00;;;;;;;4.50;2.88;;;3.00;99.90;;;;;;5120097;28;20084;-66
2020/12/07 07:35:30;;;;;;;5.50;3.45;;;3.00;99.90;;;;;;5119933;28;20050;-67
2020/12/07 07:37:58;;;;;;;4.80;2.78;;;3.00;99.90;;;;;;5119776;28;20019;-67
2020/12/07 07:40:28;;;;;;;5.35;2.92;;;3.10;99.90;;;;;;5119692;28;20042;-68
2020/12/07 07:42:59;;;;;;;9.10;3.33;;;3.10;99.90;;;;;;5120223;28;20024;-68
2020/12/07 07:45:33;;;;;;;4.10;2.58;;;3.10;99.90;;;;;;5119562;28;20051;-68
2020/12/07 07:48:17;;;;;;;5.20;3.05;;;3.10;99.90;;;;;;5120140;28;20052;-68
2020/12/07 08:11:31;;;;;;;5.03;3.08;;;3.20;99.90;;;;;;5119187;28;20070;-69
2020/12/07 08:15:20;;;;;;;4.20;2.47;;;3.20;99.90;;;;;;5119008;28;20031;-69
2020/12/07 08:16:22;;;;;;;4.20;2.58;;;3.20;99.90;;;;;;5118765;28;20408;-69
2020/12/07 08:18:54;;;;;;;4.32;2.75;;;3.20;99.90;;;;;;5118874;28;20024;-69
2020/12/07 08:21:32;;;;;;;4.63;2.45;;;3.20;99.90;;;;;;5118622;28;20034;-69
2020/12/07 08:24:09;;;;;;;3.90;2.40;;;3.20;99.90;;;;;;5118778;28;20023;-68
2020/12/07 08:26:44;;;;;;;4.93;2.70;;;3.20;99.90;;;;;;5118657;28;20536;-69
2020/12/07 08:29:12;;;;;;;4.05;2.60;;;3.30;99.90;;;;;;5118971;28;20319;-68
2020/12/07 08:31:41;;;;;;;4.68;2.53;;;3.30;99.90;;;;;;5118635;28;20030;-68
2020/12/07 08:34:14;;;;;;;4.88;2.53;;;3.30;99.90;;;;;;5118970;28;20020;-69
2020/12/07 08:36:46;;;;;;;3.55;2.10;;;3.40;99.90;;;;;;5118532;28;20020;-67
2020/12/07 08:39:13;;;;;;;2.92;1.92;;;3.40;99.90;;;;;;5118645;28;20020;-68
2020/12/07 08:41:40;;;;;;;5.22;2.55;;;3.40;99.90;;;;;;5118853;28;20030;-68
2020/12/07 08:44:10;;;;;;;3.13;2.03;;;3.40;99.90;;;;;;5118419;28;20322;-68
2020/12/07 08:46:38;;;;;;;4.82;2.25;;;3.40;99.90;;;;;;5100187;28;20027;-68
2020/12/07 08:49:07;;;;;;;3.80;2.15;;;3.50;99.90;;;;;;5118499;28;20320;-69
2020/12/07 08:51:35;;;;;;;4.07;2.40;;;3.50;99.90;;;;;;5118428;28;20050;-69
2020/12/07 08:54:04;;;;;;;5.85;2.35;;;3.50;99.90;;;;;;5118229;28;20419;-68
2020/12/07 08:56:31;;;;;;;3.90;2.10;;;3.50;99.90;;;;;;5100071;28;20034;-69
2020/12/07 08:58:59;;;;;;;3.75;2.30;;;3.60;99.90;;;;;;5118685;28;20072;-69
2020/12/07 09:01:28;;;;;;;3.75;2.30;;;3.50;99.90;;;;;;5118144;28;20019;-68
2020/12/07 09:03:55;;;;;;;6.00;3.13;;;3.60;99.90;;;;;;5100018;28;20028;-69
2020/12/07 09:06:23;;;;;;;12.18;5.82;;;3.60;99.90;;;;;;5099930;28;20391;-69
2020/12/07 09:08:50;;;;;;;15.05;6.68;;;3.60;99.90;;;;;;5118088;28;20040;-69
2020/12/07 09:11:18;;;;;;;7.03;3.85;;;3.60;99.90;;;;;;5099808;28;20036;-69
2020/12/07 09:13:46;;;;;;;5.88;3.30;;;3.60;99.90;;;;;;5099844;28;20024;-69
2020/12/07 09:16:14;;;;;;;14.45;5.13;;;3.60;99.90;;;;;;5118428;28;20020;-69
2020/12/07 09:18:43;;;;;;;7.07;3.65;;;3.60;99.90;;;;;;5118363;28;20411;-69
2020/12/07 09:21:11;;;;;;;15.70;6.38;;;3.60;99.90;;;;;;5117714;28;20106;-69
2020/12/07 09:23:39;;;;;;;5.82;3.08;;;3.60;99.90;;;;;;5117522;28;20030;-69
2020/12/07 09:26:08;;;;;;;6.43;3.47;;;3.60;99.90;;;;;;5100315;28;20403;-69
2020/12/07 09:28:36;;;;;;;6.03;3.70;;;3.70;99.90;;;;;;5117914;28;20031;-69
2020/12/07 09:31:07;;;;;;;6.25;3.85;;;3.70;99.90;;;;;;5117524;28;20325;-69
2020/12/07 09:33:36;;;;;;;6.80;4.20;;;3.80;99.90;;;;;;5118140;28;20366;-69
2020/12/07 09:36:04;;;;;;;5.20;3.20;;;3.80;99.90;;;;;;5117500;28;20023;-69
2020/12/07 09:38:32;;;;;;;5.28;3.25;;;3.80;99.90;;;;;;5118044;28;20069;-69
2020/12/07 09:41:00;;;;;;;7.05;3.80;;;3.90;99.90;;;;;;5117477;28;20037;-69
2020/12/07 09:43:27;;;;;;;5.88;3.47;;;3.90;99.90;;;;;;5117967;28;20023;-69
2020/12/07 09:45:56;;;;;;;5.50;3.35;;;3.90;99.90;;;;;;5117919;28;20020;-69
2020/12/07 09:48:23;;;;;;;5.63;3.30;;;3.90;99.90;;;;;;5117341;28;20026;-69
2020/12/07 09:50:51;;;;;;;6.45;3.47;;;3.90;99.90;;;;;;5117720;28;20023;-69
2020/12/07 09:53:19;;;;;;;6.03;3.55;;;3.90;99.90;;;;;;5117829;28;20023;-69
2020/12/07 09:55:47;;;;;;;6.57;4.25;;;3.90;99.90;;;;;;5117251;28;20020;-69
2020/12/07 09:58:16;;;;;;;6.07;3.75;;;3.90;99.90;;;;;;5117764;28;20026;-69
2020/12/07 10:00:43;;;;;;;5.47;3.85;;;3.90;99.90;;;;;;5117397;28;20023;-69
2020/12/07 10:03:11;;;;;;;6.40;3.85;;;4.00;99.90;;;;;;5117182;28;20343;-69
2020/12/07 10:05:38;;;;;;;7.22;4.28;;;4.00;99.90;;;;;;5117182;28;20032;-69
2020/12/07 10:08:06;;;;;;;6.45;4.18;;;4.00;99.90;;;;;;5116875;28;20070;-69
2020/12/07 10:10:34;;;;;;;7.55;4.03;;;4.00;99.90;;;;;;5117007;28;20101;-69
2020/12/07 10:13:01;;;;;;;6.47;4.70;;;4.00;99.90;;;;;;5099025;28;20073;-69
2020/12/07 10:15:29;;;;;;;5.78;3.75;;;4.00;99.90;;;;;;5117014;28;20016;-69
2020/12/07 10:17:57;;;;;;;8.18;4.35;;;4.10;99.90;;;;;;5098911;28;20019;-69
2020/12/07 10:20:25;;;;;;;5.75;3.60;;;4.10;99.90;;;;;;5098868;28;20047;-69
2020/12/07 10:22:52;;;;;;;6.55;4.72;;;4.10;99.90;;;;;;5116913;28;20058;-69
2020/12/07 10:25:20;;;;;;;8.07;5.20;;;4.10;99.90;;;;;;5118092;28;20073;-69
2020/12/07 10:27:48;;;;;;;8.10;5.28;;;4.10;99.90;;;;;;5098839;28;20015;-69
2020/12/07 10:30:16;;;;;;;8.65;4.50;;;4.20;99.90;;;;;;5117402;28;20115;-69
2020/12/07 10:32:43;;;;;;;7.40;4.57;;;4.20;99.90;;;;;;5098665;28;20114;-69
2020/12/07 10:35:12;;;;;;;10.05;4.85;;;4.20;99.90;;;;;;5121350;28;20031;-69
2020/12/07 10:37:40;;;;;;;11.70;5.30;;;4.20;99.90;;;;;;5102817;28;20015;-69
2020/12/07 10:40:08;;;;;;;13.38;7.97;;;4.20;99.90;;;;;;5120957;28;20020;-69
2020/12/07 10:42:36;;;;;;;6.47;3.85;;;4.20;99.90;;;;;;5120881;28;20095;-68
2020/12/07 10:45:04;;;;;;;5.22;2.72;;;4.20;99.90;;;;;;5121006;28;20011;-69
2020/12/07 10:47:32;;;;;;;4.47;3.30;;;4.20;99.90;;;;;;5120784;28;20027;-69
2020/12/07 10:50:00;;;;;;;3.95;2.63;;;4.20;99.90;;;;;;5102638;28;20122;-69
2020/12/07 10:52:27;;;;;;;4.75;3.22;;;4.20;99.90;;;;;;5120542;28;20388;-69
2020/12/07 10:54:55;;;;;;;4.20;3.00;;;4.30;99.90;;;;;;5120787;28;20182;-69
2020/12/07 10:57:23;;;;;;;4.32;2.40;;;4.30;99.90;;;;;;5121056;28;20015;-69
2020/12/07 10:59:51;;;;;;;4.65;2.72;;;4.30;99.90;;;;;;5120552;28;20034;-69
2020/12/07 11:02:19;;;;;;;4.38;2.80;;;4.30;99.90;;;;;;5121038;28;20016;-69
2020/12/07 11:04:47;;;;;;;7.03;3.25;;;4.40;99.90;;;;;;5120608;28;20024;-69
2020/12/07 11:07:17;;;;;;;4.32;2.78;;;4.40;99.90;;;;;;5120025;28;20026;-69
2020/12/07 11:09:46;;;;;;;4.13;3.35;;;4.40;99.90;;;;;;5120153;28;20147;-69
2020/12/07 11:12:19;;;;;;;4.43;2.80;;;4.40;99.90;;;;;;5120081;28;20328;-69
2020/12/07 11:14:47;;;;;;;3.50;2.20;;;4.40;99.90;;;;;;5120235;28;20316;-69
2020/12/07 11:17:15;;;;;;;4.80;2.30;;;4.40;99.90;;;;;;5120728;28;20024;-69
2020/12/07 11:19:44;;;;;;;3.58;2.30;;;4.40;99.90;;;;;;5102018;28;20024;-69
2020/12/07 11:22:13;;;;;;;2.65;1.77;;;4.40;99.90;;;;;;5120058;28;20026;-69
2020/12/07 11:24:41;;;;;;;5.53;2.67;;;4.40;99.90;;;;;;5120192;28;20046;-70
2020/12/07 11:27:08;;;;;;;4.70;2.78;;;4.40;99.90;;;;;;5120585;28;20404;-68
2020/12/07 11:29:36;;;;;;;4.95;3.00;;;4.50;99.90;;;;;;5119976;28;20024;-69
2020/12/07 11:32:04;;;;;;;3.70;2.47;;;4.50;99.90;;;;;;5119841;28;20019;-70
2020/12/07 11:34:32;;;;;;;2.80;2.05;;;4.50;99.90;;;;;;5120353;28;20019;-69
2020/12/07 11:36:59;;;;;;;3.70;2.50;;;4.50;99.90;;;;;;5084984;28;20081;-69
2020/12/07 11:39:41;;;;;;;4.43;2.83;;;4.60;99.90;;;;;;5101760;28;20019;-69
2020/12/07 11:42:36;;;;;;;2.90;2.00;;;4.60;99.90;;;;;;5120237;28;20131;-69
2020/12/07 11:45:04;;;;;;;3.80;2.60;;;4.60;99.90;;;;;;5119074;28;20055;-68
2020/12/07 11:47:32;;;;;;;4.20;2.30;;;4.60;99.90;;;;;;5101472;28;20030;-68
2020/12/07 11:50:00;;;;;;;3.83;2.42;;;4.60;99.90;;;;;;5120338;28;20143;-67
2020/12/07 11:52:28;;;;;;;4.03;2.40;;;4.60;99.90;;;;;;5119402;28;20047;-67
2020/12/07 11:54:55;;;;;;;3.33;2.50;;;4.60;99.90;;;;;;5119527;28;20419;-67
2020/12/07 11:57:23;;;;;;;4.43;2.90;;;4.60;99.90;;;;;;5119940;28;20016;-67
2020/12/07 11:59:51;;;;;;;4.55;2.60;;;4.60;99.90;;;;;;5119571;28;20063;-67
2020/12/07 12:02:19;;;;;;;3.22;2.35;;;4.60;99.90;;;;;;5119879;28;20027;-67
2020/12/07 12:04:47;;;;;;;3.58;2.50;;;4.60;99.90;;;;;;5101182;28;20032;-68
2020/12/07 12:07:15;;;;;;;2.42;1.50;;;4.50;99.90;;;;;;5100899;28;20324;-68
2020/12/07 12:09:43;;;;;;;3.33;2.28;;;4.60;99.90;;;;;;5119918;28;20066;-68
2020/12/07 12:12:11;;;;;;;6.05;2.10;;;4.60;99.90;;;;;;5119639;28;20363;-69
2020/12/07 12:14:39;;;;;;;3.40;2.25;;;4.60;99.90;;;;;;5101014;28;20057;-69
2020/12/07 12:17:07;;;;;;;3.38;2.25;;;4.60;99.90;;;;;;5119942;28;20407;-69
2020/12/07 12:19:35;;;;;;;5.07;2.45;;;4.60;99.90;;;;;;5101060;28;20059;-72
2020/12/07 12:22:04;;;;;;;3.10;2.17;;;4.60;99.90;;;;;;5119139;28;20404;-72
2020/12/07 12:24:31;;;;;;;3.22;1.95;;;4.70;99.90;;;;;;5119473;28;20038;-71
2020/12/07 12:26:59;;;;;;;3.03;2.13;;;4.70;99.90;;;;;;5118827;28;20024;-72
2020/12/07 12:29:28;;;;;;;3.03;2.03;;;4.70;99.90;;;;;;5119564;28;20143;-74
2020/12/07 12:31:55;;;;;;;3.35;2.20;;;4.80;99.90;;;;;;5118831;28;20098;-71
2020/12/07 12:34:23;;;;;;;2.88;1.75;;;4.80;99.90;;;;;;5118724;28;20016;-72
2020/12/07 12:36:51;;;;;;;3.17;2.30;;;4.80;99.90;;;;;;5100480;28;20419;-72
2020/12/07 12:39:20;;;;;;;2.85;2.15;;;4.80;99.90;;;;;;5118785;28;20020;-71
2020/12/07 12:41:48;;;;;;;4.03;3.10;;;4.80;99.90;;;;;;5100773;28;20362;-71
2020/12/07 12:44:16;;;;;;;3.28;2.20;;;4.80;99.90;;;;;;5083649;28;20026;-71
2020/12/07 12:46:44;;;;;;;2.92;1.67;;;4.80;99.90;;;;;;5118453;28;20023;-71
2020/12/07 12:49:12;;;;;;;2.83;1.90;;;4.90;99.90;;;;;;5118871;28;20111;-71
2020/12/07 12:51:45;;;;;;;3.50;2.05;;;4.80;99.90;;;;;;5118607;28;20030;-71
2020/12/07 12:54:13;;;;;;;2.33;1.60;;;4.80;99.90;;;;;;5118898;28;20024;-71
2020/12/07 12:56:40;;;;;;;3.35;1.90;;;4.90;99.90;;;;;;5119100;28;20351;-71
2020/12/07 12:59:09;;;;;;;2.30;1.38;;;4.80;99.90;;;;;;5100294;28;20053;-71
2020/12/07 13:01:41;;;;;;;3.65;1.58;;;4.90;99.90;;;;;;5118125;28;20016;-71
2020/12/07 13:04:09;;;;;;;2.88;1.80;;;4.90;99.90;;;;;;5118475;28;20102;-71
2020/12/07 13:06:37;;;;;;;2.65;1.80;;;4.90;99.90;;;;;;5118030;28;20020;-71
2020/12/07 13:09:06;;;;;;;3.20;2.28;;;4.90;99.90;;;;;;5118112;28;20059;-71
2020/12/07 13:11:37;;;;;;;3.00;1.85;;;4.90;99.90;;;;;;5118210;28;20015;-71
2020/12/07 13:14:05;;;;;;;3.75;2.20;;;4.90;99.90;;;;;;5099896;28;20413;-72
2020/12/07 13:16:58;;;;;;;3.20;1.83;;;4.90;99.90;;;;;;5118380;28;20315;-70
2020/12/07 13:19:23;;;;;;;2.42;1.70;;;4.90;99.90;;;;;;5117445;28;20053;-71
2020/12/07 13:22:03;;;;;;;3.65;2.22;;;4.90;99.90;;;;;;5099689;28;20111;-71
2020/12/07 13:27:54;;;;;;;3.08;1.73;;;5.00;99.90;;;;;;5035386;28;20299;-71
2020/12/07 13:30:25;;;;;;;2.47;1.50;;;5.00;99.90;;;;;;5112256;28;20032;-71
2020/12/07 13:32:52;;;;;;;3.20;1.95;;;5.00;99.90;;;;;;5117444;28;20023;-71